map of ZSE home
Great Circle Mapper logo
ZSE - Airport
Location
City:  St-Pierre, Réunion
Near (Alt.):St-Pierre de la Réunion
Name:Pierrefonds
ICAO / IATA:FMEP / ZSE

Details
Type:Airport (Aerodrome, Airfield)
Latitude:21°19'18"S (-21.321666)
Longitude:55°25'32"E (55.425556)
Elevation:59 ft (18 m)
Variation:19.6°W (WMM2010 magnetic declination)
Runways:1
Longest:6070 × 98 ft (1850 × 30 m), paved

Time
Time Zone:UTC+4
Local Time:

Weather
METAR:FMEP 242030Z AUTO 10005KT 060V120 9999 BKN048/// BKN062/// 26/21 Q1016

Related Locations
Nearby:
Farthest:CDI: 11691 mi / 18815 km
Cedros [Isla de Cedros Airport], Isla de Cedros, BCN, MX

Find:

   beyond  
but within

Other Information
Maps:
NOTAMs:
Sources:

  
flag of Réunion   

Sectional Chart

Flight Planning
at skyvector.com

Satellite Image

Google Maps Satellite View

 

Copyright © 2004-2014 Karl L. Swartz. All rights reserved.
The Great Circle Mapper name and logo are trademarks of the Great Circle Mapper.
All other trademarks mentioned herein belong to their respective owners.
Please see credits for attibutions and further copyright information.

  Follow gcmap on Facebook Follow gcmap on Twitter

hCard Microformat

Geo Microformat